Time;durP1;ratioP1;P1;durP2;ratioP2;P2;SDS_P1;SDS_P2;PMS_P1;PMS_P2;Temp;Humidity;BMP_temperature;BMP_pressure;BME280_temperature;BME280_humidity;BME280_pressure;Samples;Min_cycle;Max_cycle;Signal;HPM_P1;HPM_P2
2022/11/19 03:06:10;;;;;;;11.17;10.37;;;7.20;99.90;;;;;;4872941;29;20207;-86
2022/11/19 03:08:40;;;;;;;11.00;10.30;;;7.20;99.90;;;;;;4882094;29;20207;-86
2022/11/19 03:11:16;;;;;;;11.37;10.67;;;7.10;99.90;;;;;;4871683;29;20608;-86
2022/11/19 03:16:41;;;;;;;11.40;10.70;;;7.20;99.90;;;;;;4877089;29;20199;-86
2022/11/19 03:19:27;;;;;;;11.50;10.80;;;7.20;99.90;;;;;;4865297;29;20200;-86
2022/11/19 03:21:58;;;;;;;12.37;11.37;;;7.20;99.90;;;;;;4880535;29;20223;-86
2022/11/19 03:24:30;;;;;;;11.37;10.67;;;7.20;99.90;;;;;;4879210;29;20591;-86
2022/11/19 03:27:03;;;;;;;11.10;10.50;;;7.10;99.90;;;;;;4881895;29;20539;-86
2022/11/19 03:29:35;;;;;;;11.07;10.43;;;7.10;99.90;;;;;;4876665;29;20216;-86
2022/11/19 03:32:09;;;;;;;11.70;11.00;;;7.10;99.90;;;;;;4872703;29;20228;-85
2022/11/19 03:34:40;;;;;;;11.70;11.00;;;7.00;99.90;;;;;;4873523;29;20233;-85
2022/11/19 03:37:09;;;;;;;11.47;10.83;;;7.10;99.90;;;;;;4877341;29;20204;-85
2022/11/19 03:39:37;;;;;;;11.93;11.23;;;7.10;99.90;;;;;;4873711;29;20198;-85
2022/11/19 03:42:09;;;;;;;11.30;10.60;;;7.00;99.90;;;;;;4872748;29;20659;-86
2022/11/19 03:44:40;;;;;;;11.07;10.37;;;7.00;99.90;;;;;;4872660;29;20215;-86
2022/11/19 03:47:11;;;;;;;11.30;10.70;;;7.00;99.90;;;;;;4877645;29;20208;-86
2022/11/19 03:49:44;;;;;;;11.47;10.70;;;6.90;99.90;;;;;;4879829;29;20215;-86
2022/11/19 03:52:13;;;;;;;11.13;10.50;;;6.90;99.90;;;;;;4881200;29;20224;-86
2022/11/19 03:54:41;;;;;;;11.17;10.47;;;6.80;99.90;;;;;;4880070;29;20601;-86
2022/11/19 03:57:10;;;;;;;11.20;10.60;;;6.80;99.90;;;;;;4880216;29;20210;-85
2022/11/19 03:59:37;;;;;;;11.50;10.70;;;6.80;99.90;;;;;;4879969;29;20218;-85
2022/11/19 04:02:08;;;;;;;11.30;10.70;;;6.80;99.90;;;;;;4878591;29;20231;-86
2022/11/19 04:04:38;;;;;;;11.40;10.70;;;6.80;99.90;;;;;;4875817;29;20223;-86
2022/11/19 04:07:13;;;;;;;11.60;10.80;;;6.80;99.90;;;;;;4872038;29;20211;-85
2022/11/19 04:09:41;;;;;;;11.90;11.10;;;6.80;99.90;;;;;;4876104;29;20626;-86
2022/11/19 04:12:15;;;;;;;11.50;10.80;;;6.80;99.90;;;;;;4871254;29;20323;-85
2022/11/19 04:14:42;;;;;;;11.63;10.93;;;6.80;99.90;;;;;;4868470;29;20214;-85
2022/11/19 04:17:09;;;;;;;11.80;11.07;;;6.90;99.90;;;;;;4876838;29;20211;-86
2022/11/19 04:19:36;;;;;;;11.47;10.87;;;6.90;99.90;;;;;;4878429;29;20268;-86
2022/11/19 04:22:03;;;;;;;11.80;11.00;;;6.90;99.90;;;;;;4878860;29;20231;-86
2022/11/19 04:24:31;;;;;;;11.93;11.23;;;6.90;99.90;;;;;;4871671;29;20218;-86
2022/11/19 04:26:58;;;;;;;11.27;10.63;;;6.90;99.90;;;;;;4878836;29;20684;-85
2022/11/19 04:29:25;;;;;;;12.10;11.30;;;6.90;99.90;;;;;;4870752;29;20194;-86
2022/11/19 04:31:52;;;;;;;11.97;11.10;;;6.90;99.90;;;;;;4872408;29;20228;-86
2022/11/19 04:34:18;;;;;;;12.00;11.30;;;6.90;99.90;;;;;;4891393;29;20200;-86
2022/11/19 04:36:46;;;;;;;11.93;11.10;;;6.90;99.90;;;;;;4873492;29;20208;-86
2022/11/19 04:39:13;;;;;;;12.37;11.57;;;6.90;99.90;;;;;;4877182;29;20624;-86
2022/11/19 04:41:42;;;;;;;12.27;11.47;;;6.90;99.90;;;;;;4870216;29;20221;-86
2022/11/19 04:44:09;;;;;;;11.83;11.20;;;7.00;99.90;;;;;;4875008;29;20211;-85
2022/11/19 04:46:35;;;;;;;11.90;11.20;;;7.00;99.90;;;;;;4873184;29;20200;-85
2022/11/19 04:49:02;;;;;;;12.13;11.33;;;7.00;99.90;;;;;;4871187;29;20203;-85
2022/11/19 04:51:29;;;;;;;12.30;11.50;;;7.00;99.90;;;;;;4874671;29;20734;-82
2022/11/19 04:53:56;;;;;;;12.23;11.53;;;7.00;99.90;;;;;;4877410;29;20675;-81
2022/11/19 04:56:23;;;;;;;12.33;11.53;;;7.00;99.90;;;;;;4872172;29;20215;-80
2022/11/19 04:58:51;;;;;;;12.13;11.40;;;7.00;99.90;;;;;;4871366;29;20691;-80
2022/11/19 05:01:19;;;;;;;12.90;12.20;;;7.00;99.90;;;;;;4871943;29;20779;-80
2022/11/19 05:03:46;;;;;;;11.83;11.03;;;7.00;99.90;;;;;;4871157;29;20215;-81
2022/11/19 05:06:13;;;;;;;12.70;11.80;;;7.00;99.90;;;;;;4871292;29;20206;-81
2022/11/19 05:08:40;;;;;;;11.90;11.20;;;7.00;99.90;;;;;;4874052;29;20208;-81
2022/11/19 05:11:07;;;;;;;12.10;11.40;;;7.00;99.90;;;;;;4876254;29;20223;-81
2022/11/19 05:13:34;;;;;;;12.00;11.30;;;7.00;99.90;;;;;;4871262;29;20680;-82
2022/11/19 05:16:02;;;;;;;12.20;11.50;;;7.00;99.90;;;;;;4872362;29;20222;-81
2022/11/19 05:18:29;;;;;;;11.77;11.07;;;7.00;99.90;;;;;;4870618;29;20581;-81
2022/11/19 05:20:55;;;;;;;11.37;10.77;;;7.00;99.90;;;;;;4877787;29;20229;-81
2022/11/19 05:23:23;;;;;;;11.60;10.93;;;7.00;99.90;;;;;;4876551;29;20306;-81
2022/11/19 05:25:50;;;;;;;11.90;11.20;;;7.00;99.90;;;;;;4876462;29;20662;-81
2022/11/19 05:28:16;;;;;;;12.10;11.40;;;7.00;99.90;;;;;;4879144;29;20214;-81
2022/11/19 05:30:43;;;;;;;12.10;11.30;;;7.00;99.90;;;;;;4873750;29;20238;-82
2022/11/19 05:33:12;;;;;;;11.70;11.00;;;7.00;99.90;;;;;;4869709;29;20214;-82
2022/11/19 05:35:38;;;;;;;12.27;11.37;;;6.90;99.90;;;;;;4865787;29;20575;-80
2022/11/19 05:38:07;;;;;;;12.37;11.67;;;6.90;99.90;;;;;;4874418;29;20604;-81
2022/11/19 05:40:34;;;;;;;12.40;11.60;;;6.90;99.90;;;;;;4873023;29;20197;-81
2022/11/19 05:43:04;;;;;;;12.87;12.00;;;6.90;99.90;;;;;;4872929;29;20207;-82
2022/11/19 05:45:31;;;;;;;11.90;11.20;;;6.90;99.90;;;;;;4866173;29;20207;-82
2022/11/19 05:47:58;;;;;;;12.20;11.40;;;6.90;99.90;;;;;;4878493;29;20219;-81
2022/11/19 05:50:26;;;;;;;12.60;11.80;;;6.90;99.90;;;;;;4873474;29;20215;-82
2022/11/19 05:52:53;;;;;;;12.20;11.50;;;6.90;99.90;;;;;;4874957;29;20275;-82
2022/11/19 05:55:20;;;;;;;12.30;11.60;;;6.90;99.90;;;;;;4872760;29;20208;-85
2022/11/19 05:57:47;;;;;;;12.40;11.70;;;6.90;99.90;;;;;;4881315;29;20237;-84
2022/11/19 06:00:16;;;;;;;12.57;11.87;;;6.90;99.90;;;;;;4873387;29;20203;-84
2022/11/19 06:02:43;;;;;;;12.80;11.80;;;6.90;99.90;;;;;;4874547;29;20226;-83
2022/11/19 06:05:11;;;;;;;12.23;11.57;;;6.90;99.90;;;;;;4882055;29;20212;-83
2022/11/19 06:07:40;;;;;;;12.60;11.67;;;6.90;99.90;;;;;;4876474;29;20227;-83
2022/11/19 06:10:08;;;;;;;12.33;11.63;;;6.90;99.90;;;;;;4876106;29;20200;-84
2022/11/19 06:12:35;;;;;;;12.60;11.70;;;6.90;99.90;;;;;;4881326;29;20227;-84
2022/11/19 06:15:02;;;;;;;12.40;11.70;;;6.90;99.90;;;;;;4882294;29;20210;-83
2022/11/19 06:17:29;;;;;;;12.07;11.37;;;7.00;99.90;;;;;;4881654;29;20221;-84
2022/11/19 06:19:56;;;;;;;12.23;11.53;;;7.00;99.90;;;;;;4891235;29;20214;-84
2022/11/19 06:22:23;;;;;;;12.30;11.53;;;6.90;99.90;;;;;;4888998;29;20767;-83
2022/11/19 06:24:51;;;;;;;12.53;11.83;;;6.90;99.90;;;;;;4869684;29;20210;-83
2022/11/19 06:27:18;;;;;;;12.30;11.50;;;6.90;99.90;;;;;;4870227;29;20222;-83
2022/11/19 06:29:45;;;;;;;12.43;11.63;;;6.90;99.90;;;;;;4866221;29;20513;-82
2022/11/19 06:32:12;;;;;;;13.97;12.97;;;7.00;99.90;;;;;;4875333;29;20237;-84
2022/11/19 06:34:39;;;;;;;12.53;11.83;;;6.90;99.90;;;;;;4877292;29;20211;-82
2022/11/19 06:37:06;;;;;;;12.70;12.00;;;6.90;99.90;;;;;;4873059;29;20441;-80
2022/11/19 06:39:33;;;;;;;12.40;11.70;;;6.90;99.90;;;;;;4870736;29;20580;-83
2022/11/19 06:42:34;;;;;;;13.40;12.60;;;7.00;99.90;;;;;;4877247;29;20227;-80
2022/11/19 06:44:49;;;;;;;13.23;12.43;;;7.00;99.90;;;;;;4871307;29;20806;-79
2022/11/19 06:47:16;;;;;;;13.10;12.40;;;7.00;99.90;;;;;;4875199;29;20222;-79
2022/11/19 06:49:43;;;;;;;13.50;12.70;;;7.00;99.90;;;;;;4869561;29;20196;-84
2022/11/19 06:52:09;;;;;;;13.17;12.47;;;7.00;99.90;;;;;;4869698;29;20308;-82
2022/11/19 06:54:36;;;;;;;13.50;12.70;;;7.00;99.90;;;;;;4877839;29;20230;-86
2022/11/19 06:57:05;;;;;;;13.40;12.60;;;7.00;99.90;;;;;;4873936;29;20204;-80
2022/11/19 06:59:32;;;;;;;13.63;12.83;;;7.00;99.90;;;;;;4866434;29;20208;-85
2022/11/19 07:02:02;;;;;;;13.97;13.07;;;7.10;99.90;;;;;;4888489;29;20754;-85
2022/11/19 07:04:31;;;;;;;13.20;12.40;;;7.10;99.90;;;;;;4876910;29;20691;-84
2022/11/19 07:06:58;;;;;;;13.00;12.20;;;7.10;99.90;;;;;;4873125;29;20293;-85
2022/11/19 07:09:25;;;;;;;13.10;12.30;;;7.10;99.90;;;;;;4877071;29;20208;-86
2022/11/19 07:11:52;;;;;;;13.30;12.50;;;7.20;99.90;;;;;;4878454;29;20344;-86
2022/11/19 07:14:20;;;;;;;12.63;11.93;;;7.20;99.90;;;;;;4875275;29;20209;-86
2022/11/19 07:16:47;;;;;;;12.57;11.87;;;7.20;99.90;;;;;;4871792;29;20203;-85
2022/11/19 07:19:14;;;;;;;13.30;12.50;;;7.30;99.90;;;;;;4876134;29;20209;-84
2022/11/19 07:21:41;;;;;;;12.30;11.60;;;7.30;99.90;;;;;;4880319;29;20231;-85
2022/11/19 07:24:09;;;;;;;12.67;11.97;;;7.30;99.90;;;;;;4874256;29;20652;-85
2022/11/19 07:26:37;;;;;;;12.80;12.00;;;7.50;99.90;;;;;;4878042;29;20257;-84
2022/11/19 07:29:06;;;;;;;12.70;12.00;;;7.60;99.90;;;;;;4876364;29;20205;-85
2022/11/19 07:31:35;;;;;;;13.27;12.47;;;7.70;99.90;;;;;;4878071;29;20216;-85
2022/11/19 07:34:02;;;;;;;12.77;11.93;;;7.70;99.90;;;;;;4872904;29;20234;-80
2022/11/19 07:36:28;;;;;;;13.23;12.43;;;7.70;99.90;;;;;;4871553;29;20273;-81
2022/11/19 07:38:55;;;;;;;12.40;11.70;;;7.70;99.90;;;;;;4871203;29;20197;-87
2022/11/19 07:44:07;;;;;;;12.23;11.53;;;7.50;99.90;;;;;;4880221;29;20553;-86
2022/11/19 07:46:35;;;;;;;12.90;12.20;;;7.40;99.90;;;;;;4872252;29;20299;-86
2022/11/19 07:49:02;;;;;;;12.47;11.77;;;7.40;99.90;;;;;;4874441;29;20261;-86
2022/11/19 07:51:29;;;;;;;12.37;11.67;;;7.30;99.90;;;;;;4872904;29;20231;-86
2022/11/19 07:53:56;;;;;;;12.50;11.70;;;7.30;99.90;;;;;;4876701;29;20208;-84
2022/11/19 07:56:24;;;;;;;12.80;12.00;;;7.50;99.90;;;;;;4875899;29;20207;-86
2022/11/19 07:58:51;;;;;;;12.40;11.70;;;7.50;99.90;;;;;;4864927;29;20215;-86
2022/11/19 08:01:20;;;;;;;12.90;12.10;;;7.50;99.90;;;;;;4877268;29;20239;-86
2022/11/19 08:03:50;;;;;;;12.90;12.00;;;7.60;99.90;;;;;;4879940;29;20215;-87
2022/11/19 08:06:19;;;;;;;13.23;12.27;;;7.60;99.90;;;;;;4878243;29;20220;-85
2022/11/19 08:08:46;;;;;;;12.93;12.13;;;7.60;99.90;;;;;;4882560;29;20204;-84
2022/11/19 08:11:15;;;;;;;13.43;12.63;;;7.50;99.90;;;;;;4876156;29;20322;-83
2022/11/19 08:13:42;;;;;;;13.40;12.60;;;7.50;99.90;;;;;;4874146;29;20196;-83
2022/11/19 08:16:11;;;;;;;13.60;12.80;;;7.50;99.90;;;;;;4876148;29;20671;-84
2022/11/19 08:18:38;;;;;;;13.90;13.00;;;7.50;99.90;;;;;;4878172;29;20209;-85
2022/11/19 08:21:08;;;;;;;13.37;12.57;;;7.60;99.90;;;;;;4876049;29;20223;-83
2022/11/19 08:23:36;;;;;;;13.37;12.57;;;7.60;99.90;;;;;;4871710;29;20216;-84
2022/11/19 08:26:03;;;;;;;13.30;12.50;;;7.70;99.90;;;;;;4866417;29;20220;-82
2022/11/19 08:28:30;;;;;;;13.70;12.80;;;7.70;99.90;;;;;;4879330;29;20211;-84
2022/11/19 08:31:05;;;;;;;13.40;12.60;;;7.80;99.90;;;;;;4876101;29;20276;-84
2022/11/19 08:33:32;;;;;;;13.50;12.60;;;7.80;99.90;;;;;;4871849;29;20219;-85
2022/11/19 08:35:59;;;;;;;14.13;13.13;;;7.80;99.90;;;;;;4871290;29;20200;-84
2022/11/19 08:38:28;;;;;;;13.40;12.67;;;7.90;99.90;;;;;;4875681;29;20677;-84
2022/11/19 08:42:58;;;;;;;13.23;12.50;;;7.90;99.90;;;;;;4875113;29;20230;-84
2022/11/19 08:43:41;;;;;;;13.63;12.73;;;8.00;99.90;;;;;;4861561;29;20202;-81
2022/11/19 08:46:08;;;;;;;13.00;12.30;;;8.00;99.90;;;;;;4873294;29;20205;-80
2022/11/19 08:48:35;;;;;;;13.30;12.40;;;8.10;99.90;;;;;;4874295;29;20231;-78
2022/11/19 08:51:04;;;;;;;13.93;13.07;;;8.10;99.90;;;;;;4875761;29;20233;-78
2022/11/19 08:53:32;;;;;;;13.77;12.97;;;8.20;99.90;;;;;;4868289;29;20722;-80
2022/11/19 08:55:59;;;;;;;13.70;12.90;;;8.30;99.90;;;;;;4873680;29;20214;-83
2022/11/19 08:58:26;;;;;;;13.90;13.10;;;8.40;99.90;;;;;;4879887;29;20219;-84
2022/11/19 09:00:54;;;;;;;13.40;12.60;;;8.40;99.90;;;;;;4878056;29;20831;-77
2022/11/19 09:03:20;;;;;;;13.50;12.60;;;8.40;99.90;;;;;;4894701;29;20197;-81
2022/11/19 09:05:47;;;;;;;13.83;13.00;;;8.50;99.90;;;;;;4875918;29;20197;-79
2022/11/19 09:08:14;;;;;;;8.87;8.23;;;8.50;99.90;;;;;;4880637;29;20213;-84
2022/11/19 09:10:42;;;;;;;6.73;5.37;;;8.50;99.90;;;;;;4877815;29;20208;-80
2022/11/19 09:13:09;;;;;;;4.80;4.43;;;8.60;99.90;;;;;;4871567;29;20281;-81
2022/11/19 09:15:36;;;;;;;6.87;6.27;;;8.60;99.90;;;;;;4864956;29;20730;-80
2022/11/19 09:18:03;;;;;;;7.50;7.00;;;8.50;99.90;;;;;;4877905;29;20208;-85
2022/11/19 09:20:30;;;;;;;7.87;7.33;;;8.60;99.90;;;;;;4878373;29;20220;-81
2022/11/19 09:22:57;;;;;;;6.37;5.87;;;8.60;99.90;;;;;;4878799;29;20691;-85
2022/11/19 09:25:24;;;;;;;3.87;3.60;;;8.50;99.90;;;;;;4876748;29;20213;-84
2022/11/19 09:27:52;;;;;;;5.43;4.60;;;8.60;99.90;;;;;;4877911;29;20201;-85
2022/11/19 09:30:19;;;;;;;4.00;3.70;;;8.60;99.90;;;;;;4869302;29;20677;-85
2022/11/19 09:32:46;;;;;;;5.40;4.90;;;8.60;99.90;;;;;;4877754;29;20642;-84
2022/11/19 09:35:13;;;;;;;4.67;4.37;;;8.70;99.90;;;;;;4875603;29;20223;-84
2022/11/19 09:37:39;;;;;;;4.33;3.93;;;8.70;99.90;;;;;;4876699;29;20201;-84
2022/11/19 09:40:08;;;;;;;6.43;5.93;;;8.60;99.90;;;;;;4877241;29;20212;-84
2022/11/19 09:42:44;;;;;;;5.10;4.77;;;8.60;99.90;;;;;;4877680;29;20221;-85
2022/11/19 09:45:19;;;;;;;6.13;5.73;;;8.60;99.90;;;;;;4873740;29;20209;-84
2022/11/19 09:48:04;;;;;;;11.47;10.77;;;8.60;99.90;;;;;;4878445;29;20192;-84
2022/11/19 09:50:36;;;;;;;11.50;10.80;;;8.70;99.90;;;;;;4870110;29;20186;-85
2022/11/19 09:53:09;;;;;;;11.50;10.80;;;8.90;99.90;;;;;;4870603;29;20218;-85
2022/11/19 09:55:38;;;;;;;11.70;11.10;;;9.10;99.90;;;;;;4875135;29;20202;-84
2022/11/19 09:58:11;;;;;;;11.93;11.23;;;9.20;99.90;;;;;;4875270;29;20209;-85
2022/11/19 10:00:40;;;;;;;11.50;10.90;;;9.40;99.90;;;;;;4877084;29;20224;-84
2022/11/19 10:03:14;;;;;;;11.63;10.93;;;9.50;99.90;;;;;;4873219;29;20205;-84
2022/11/19 10:05:52;;;;;;;11.37;10.77;;;9.50;99.90;;;;;;4872162;29;20212;-85
2022/11/19 10:08:33;;;;;;;11.30;10.70;;;9.70;99.90;;;;;;4868053;29;20213;-85
2022/11/19 10:11:16;;;;;;;11.50;10.90;;;9.70;99.90;;;;;;4874544;29;20733;-86
2022/11/19 10:13:51;;;;;;;12.07;11.37;;;9.90;99.90;;;;;;4877939;29;20240;-83
2022/11/19 10:16:34;;;;;;;12.03;11.30;;;9.90;99.90;;;;;;4877903;29;20312;-85
2022/11/19 10:19:11;;;;;;;12.00;11.30;;;10.00;99.90;;;;;;4877918;29;20212;-85
2022/11/19 10:21:44;;;;;;;11.90;11.20;;;10.10;99.90;;;;;;4872356;29;20253;-86
2022/11/19 10:24:17;;;;;;;11.70;11.00;;;10.10;99.90;;;;;;4877213;29;20209;-85
2022/11/19 10:26:50;;;;;;;12.10;11.30;;;10.20;99.90;;;;;;4873484;29;20197;-86
2022/11/19 10:29:22;;;;;;;12.17;11.47;;;10.20;99.90;;;;;;4876184;29;20206;-85
2022/11/19 10:31:51;;;;;;;12.07;11.30;;;10.20;99.90;;;;;;4869702;29;20768;-85
2022/11/19 10:34:22;;;;;;;12.60;11.90;;;10.20;99.90;;;;;;4869604;29;20210;-85
2022/11/19 10:36:54;;;;;;;3.93;3.63;;;10.30;99.90;;;;;;4872254;29;20213;-85
2022/11/19 10:39:27;;;;;;;3.33;3.03;;;10.40;99.90;;;;;;4874174;29;20725;-85
2022/11/19 10:41:58;;;;;;;11.80;10.93;;;10.50;99.90;;;;;;4868985;29;20233;-86
2022/11/19 10:44:42;;;;;;;11.80;11.20;;;10.50;99.90;;;;;;4874002;29;20206;-85
2022/11/19 10:47:20;;;;;;;11.93;11.23;;;10.50;99.90;;;;;;4874303;29;20207;-85
2022/11/19 10:49:52;;;;;;;12.53;11.77;;;10.50;99.90;;;;;;4869071;29;20668;-85
2022/11/19 10:52:27;;;;;;;11.83;11.13;;;10.40;99.90;;;;;;4873863;29;20615;-86
2022/11/19 10:54:59;;;;;;;12.40;11.60;;;10.30;99.90;;;;;;4870386;29;20205;-85
2022/11/19 10:57:29;;;;;;;12.40;11.70;;;10.40;99.90;;;;;;4873956;29;20212;-85
2022/11/19 10:59:57;;;;;;;12.40;11.60;;;10.40;99.90;;;;;;4877825;29;20217;-86
2022/11/19 11:02:31;;;;;;;11.43;10.73;;;10.40;99.90;;;;;;4878505;29;20584;-84
2022/11/19 11:05:07;;;;;;;12.20;11.50;;;10.50;99.90;;;;;;4892807;29;20217;-84
2022/11/19 11:07:51;;;;;;;12.87;11.87;;;10.50;99.90;;;;;;4892254;29;20214;-85
2022/11/19 11:10:41;;;;;;;11.77;11.07;;;10.50;99.90;;;;;;4884001;29;20201;-86
2022/11/19 11:16:42;;;;;;;11.63;10.83;;;10.60;99.90;;;;;;4894127;29;20258;-85
2022/11/19 11:19:17;;;;;;;11.30;10.60;;;10.60;99.90;;;;;;4872131;29;20274;-85
2022/11/19 11:21:45;;;;;;;11.10;10.30;;;10.50;99.90;;;;;;4862275;29;20231;-85
2022/11/19 11:24:13;;;;;;;10.73;10.13;;;10.30;99.90;;;;;;4894278;29;20619;-85
2022/11/19 11:26:41;;;;;;;11.77;11.17;;;10.30;99.90;;;;;;4862519;29;20290;-85
2022/11/19 11:29:25;;;;;;;11.63;10.93;;;10.10;99.90;;;;;;4861867;29;20722;-84
2022/11/19 11:31:52;;;;;;;10.80;10.10;;;10.00;99.90;;;;;;4861982;29;20222;-85
2022/11/19 11:34:31;;;;;;;11.50;10.80;;;9.80;99.90;;;;;;4863117;29;20285;-85
2022/11/19 11:37:00;;;;;;;12.73;12.03;;;9.80;99.90;;;;;;4861846;29;20293;-85
2022/11/19 11:39:29;;;;;;;4.93;4.53;;;9.60;99.90;;;;;;4871382;29;20554;-85
2022/11/19 11:41:57;;;;;;;7.20;6.80;;;9.60;99.90;;;;;;4877431;29;20236;-85
2022/11/19 11:44:27;;;;;;;3.40;3.20;;;9.40;99.90;;;;;;4872520;29;20258;-84
2022/11/19 11:46:56;;;;;;;5.57;5.07;;;9.40;99.90;;;;;;4873007;29;20591;-85
2022/11/19 11:49:27;;;;;;;5.27;4.80;;;9.40;99.90;;;;;;4873978;29;20209;-85
2022/11/19 11:52:05;;;;;;;5.70;5.33;;;9.40;99.90;;;;;;4874079;29;20230;-84
2022/11/19 11:54:33;;;;;;;5.00;4.70;;;9.40;99.90;;;;;;4870639;29;20190;-85
2022/11/19 11:57:16;;;;;;;8.43;7.93;;;9.40;99.90;;;;;;4861824;29;20269;-85
2022/11/19 11:59:43;;;;;;;4.77;4.47;;;9.40;99.90;;;;;;4867521;29;20189;-84
2022/11/19 12:02:25;;;;;;;10.10;9.40;;;9.40;99.90;;;;;;4877341;29;20221;-85
2022/11/19 12:04:53;;;;;;;10.50;9.80;;;9.40;99.90;;;;;;4872180;29;20757;-85
2022/11/19 12:07:49;;;;;;;9.13;8.50;;;9.50;99.90;;;;;;4876236;29;20292;-85
2022/11/19 12:10:29;;;;;;;10.03;9.43;;;9.70;99.90;;;;;;4852683;29;20205;-85
2022/11/19 12:13:30;;;;;;;7.87;7.37;;;9.90;99.90;;;;;;4873866;29;20229;-84
2022/11/19 12:16:04;;;;;;;7.10;6.60;;;10.20;99.90;;;;;;4870061;29;20198;-85
2022/11/19 12:18:40;;;;;;;7.27;6.60;;;10.40;99.90;;;;;;4865059;29;20209;-85
2022/11/19 12:21:10;;;;;;;8.40;7.90;;;10.50;99.90;;;;;;4868666;29;20259;-85
2022/11/19 12:23:57;;;;;;;12.47;11.77;;;10.70;99.90;;;;;;4873364;29;20209;-85
2022/11/19 12:26:32;;;;;;;11.73;11.03;;;10.70;99.90;;;;;;4876197;29;20210;-79
2022/11/19 12:29:09;;;;;;;10.90;10.30;;;10.80;99.90;;;;;;4868298;29;20207;-79
2022/11/19 12:32:06;;;;;;;11.00;10.40;;;10.70;99.90;;;;;;4865556;29;20255;-80
2022/11/19 12:34:49;;;;;;;11.23;10.57;;;10.70;99.90;;;;;;4863639;29;20273;-80
2022/11/19 12:37:30;;;;;;;11.30;10.70;;;10.60;99.90;;;;;;4875709;29;20202;-81
2022/11/19 12:40:11;;;;;;;11.13;10.53;;;10.60;99.90;;;;;;4867102;29;20207;-81
2022/11/19 12:42:52;;;;;;;10.90;10.30;;;10.50;99.90;;;;;;4870834;29;20266;-80
2022/11/19 12:45:29;;;;;;;11.20;10.60;;;10.40;99.90;;;;;;4875349;29;20214;-80
2022/11/19 12:48:14;;;;;;;10.70;10.10;;;10.40;99.90;;;;;;4877623;29;20227;-80
2022/11/19 12:50:49;;;;;;;11.00;10.40;;;10.30;99.90;;;;;;4871802;29;20209;-80
2022/11/19 12:53:45;;;;;;;10.97;10.37;;;10.20;99.90;;;;;;4874462;29;20701;-80
2022/11/19 12:56:27;;;;;;;11.50;10.80;;;10.10;99.90;;;;;;4858642;29;20270;-80
2022/11/19 12:59:03;;;;;;;11.30;10.70;;;10.10;99.90;;;;;;4873601;29;20220;-81
2022/11/19 13:01:35;;;;;;;11.53;10.93;;;10.00;99.90;;;;;;4877226;29;20240;-81
2022/11/19 13:04:10;;;;;;;11.20;10.60;;;10.00;99.90;;;;;;4873678;29;20205;-80
2022/11/19 13:06:42;;;;;;;11.10;10.43;;;10.00;99.90;;;;;;4870350;29;20292;-80
2022/11/19 13:09:16;;;;;;;11.13;10.53;;;10.00;99.90;;;;;;4873237;29;20201;-81
2022/11/19 13:11:50;;;;;;;11.63;10.90;;;9.90;99.90;;;;;;4875993;29;20224;-81
2022/11/19 13:14:24;;;;;;;11.30;10.60;;;9.90;99.90;;;;;;4878273;29;20308;-79
2022/11/19 13:16:53;;;;;;;11.57;10.77;;;9.90;99.90;;;;;;4875555;29;20220;-81
2022/11/19 13:19:24;;;;;;;11.07;10.47;;;9.90;99.90;;;;;;4870819;29;20265;-80
2022/11/19 13:21:55;;;;;;;11.17;10.50;;;9.90;99.90;;;;;;4877555;29;20225;-80
2022/11/19 13:24:31;;;;;;;11.27;10.57;;;10.00;99.90;;;;;;4874484;29;20186;-80
2022/11/19 13:27:03;;;;;;;10.60;10.00;;;10.00;99.90;;;;;;4877475;29;20212;-80
2022/11/19 13:29:37;;;;;;;10.63;10.03;;;10.10;99.90;;;;;;4870453;29;20213;-81
2022/11/19 13:32:13;;;;;;;10.97;10.27;;;10.20;99.90;;;;;;4879040;29;20665;-81
2022/11/19 13:34:48;;;;;;;11.50;10.70;;;10.40;99.90;;;;;;4874077;29;20257;-82
2022/11/19 13:37:21;;;;;;;11.80;10.90;;;10.40;99.90;;;;;;4877221;29;20204;-82
2022/11/19 13:39:52;;;;;;;10.60;9.90;;;10.50;99.90;;;;;;4873160;29;20746;-82
2022/11/19 13:45:13;;;;;;;10.33;9.73;;;10.50;99.90;;;;;;4878563;29;20334;-78
2022/11/19 13:47:47;;;;;;;10.80;10.10;;;10.50;99.90;;;;;;4876961;29;20196;-81
2022/11/19 13:50:18;;;;;;;10.73;10.10;;;10.40;99.90;;;;;;4875921;29;20218;-78
2022/11/19 13:52:52;;;;;;;10.40;9.80;;;10.40;99.90;;;;;;4874260;29;20228;-79
2022/11/19 13:55:32;;;;;;;11.10;10.50;;;10.40;99.90;;;;;;4879005;29;20276;-79
2022/11/19 13:58:16;;;;;;;10.17;9.57;;;10.30;99.90;;;;;;4874668;29;20643;-79
2022/11/19 14:01:04;;;;;;;10.97;10.10;;;10.30;99.90;;;;;;4868971;29;20217;-79
2022/11/19 14:03:44;;;;;;;10.43;9.83;;;10.20;99.90;;;;;;4886093;29;20639;-79
2022/11/19 14:06:31;;;;;;;10.53;9.93;;;10.20;99.90;;;;;;4877984;29;20209;-79
2022/11/19 14:09:12;;;;;;;10.60;9.90;;;10.20;99.90;;;;;;4875786;29;20224;-79
2022/11/19 14:12:03;;;;;;;10.47;9.87;;;10.20;99.90;;;;;;4890268;29;20227;-79
2022/11/19 14:27:00;;;;;;;10.40;9.80;;;10.10;99.90;;;;;;4871656;29;20292;-79
2022/11/19 14:30:00;;;;;;;10.37;9.77;;;10.00;99.90;;;;;;4874970;29;20205;-79
2022/11/19 14:32:41;;;;;;;10.40;9.80;;;9.90;99.90;;;;;;4874663;29;20702;-80
2022/11/19 14:35:28;;;;;;;10.30;9.70;;;9.90;99.90;;;;;;4871549;29;20210;-79
2022/11/19 14:37:57;;;;;;;10.37;9.77;;;9.90;99.90;;;;;;4875795;29;20220;-81
2022/11/19 14:40:27;;;;;;;10.70;10.10;;;9.90;99.90;;;;;;4875619;29;20208;-82
2022/11/19 14:46:28;;;;;;;10.80;10.20;;;9.90;99.90;;;;;;4877322;29;20228;-82
2022/11/19 14:49:01;;;;;;;10.63;10.00;;;9.80;99.90;;;;;;4874809;29;20217;-81
2022/11/19 14:51:33;;;;;;;10.90;10.30;;;9.80;99.90;;;;;;4863001;29;20236;-81
2022/11/19 14:54:05;;;;;;;11.20;10.60;;;9.70;99.90;;;;;;4860956;29;20746;-81
2022/11/19 14:56:34;;;;;;;11.13;10.50;;;9.70;99.90;;;;;;4876942;29;20201;-82
2022/11/19 14:59:09;;;;;;;11.10;10.43;;;9.60;99.90;;;;;;4866539;29;20201;-82
2022/11/19 15:01:55;;;;;;;11.27;10.57;;;9.60;99.90;;;;;;4872500;29;20248;-82
2022/11/19 15:04:23;;;;;;;11.10;10.50;;;9.50;99.90;;;;;;4873968;29;20256;-82
2022/11/19 15:06:51;;;;;;;11.40;10.60;;;9.50;99.90;;;;;;4876522;29;20238;-82
2022/11/19 15:09:51;;;;;;;10.73;10.03;;;9.50;99.90;;;;;;4878809;29;20622;-81
2022/11/19 15:12:19;;;;;;;11.23;10.60;;;9.40;99.90;;;;;;4864364;29;20708;-82
2022/11/19 15:15:05;;;;;;;11.60;10.83;;;9.40;99.90;;;;;;4859204;29;20742;-81
2022/11/19 15:17:35;;;;;;;11.00;10.40;;;9.30;99.90;;;;;;4876289;29;20193;-83
2022/11/19 15:20:20;;;;;;;10.90;10.30;;;9.20;99.90;;;;;;4873893;29;20197;-83
2022/11/19 15:22:54;;;;;;;10.80;10.20;;;9.20;99.90;;;;;;4873668;29;20773;-82
2022/11/19 15:25:33;;;;;;;10.93;10.27;;;9.10;99.90;;;;;;4874795;29;20230;-83
2022/11/19 15:28:17;;;;;;;10.97;10.27;;;9.10;99.90;;;;;;4874645;29;20213;-82
2022/11/19 15:31:00;;;;;;;10.80;10.10;;;9.10;99.90;;;;;;4866833;29;20198;-82
2022/11/19 15:34:13;;;;;;;11.20;10.50;;;9.00;99.90;;;;;;4871056;29;20273;-85
2022/11/19 15:36:41;;;;;;;11.20;10.50;;;8.90;99.90;;;;;;4874183;29;20221;-85
2022/11/19 15:39:14;;;;;;;11.63;10.80;;;8.90;99.90;;;;;;4874661;29;20205;-85
2022/11/19 15:41:59;;;;;;;11.23;10.57;;;8.90;99.90;;;;;;4877452;29;20217;-86
2022/11/19 15:44:33;;;;;;;11.10;10.40;;;8.80;99.90;;;;;;4872651;29;20225;-83
2022/11/19 15:47:04;;;;;;;11.60;10.90;;;8.80;99.90;;;;;;4877207;29;20208;-82
2022/11/19 15:49:34;;;;;;;11.60;10.80;;;8.70;99.90;;;;;;4879915;29;20220;-83
2022/11/19 15:52:06;;;;;;;11.57;10.83;;;8.60;99.90;;;;;;4872849;29;20226;-79
2022/11/19 15:54:35;;;;;;;12.47;11.63;;;8.50;99.90;;;;;;4873694;29;20212;-83
2022/11/19 15:57:06;;;;;;;12.53;11.73;;;8.40;99.90;;;;;;4875550;29;20220;-82
2022/11/19 15:59:36;;;;;;;11.67;10.97;;;8.30;99.90;;;;;;4881112;29;20210;-83
2022/11/19 16:02:05;;;;;;;11.23;10.47;;;8.20;99.90;;;;;;4883095;29;20255;-82
2022/11/19 16:04:37;;;;;;;11.10;10.40;;;8.10;99.90;;;;;;4868659;29;20194;-78
2022/11/19 16:07:07;;;;;;;11.60;10.80;;;8.00;99.90;;;;;;4878549;29;20832;-81
2022/11/19 16:09:35;;;;;;;12.17;11.27;;;7.90;99.90;;;;;;4873381;29;20212;-80
2022/11/19 16:17:38;;;;;;;12.60;11.80;;;7.70;99.90;;;;;;4872586;29;20224;-80
2022/11/19 16:20:20;;;;;;;12.73;11.80;;;7.70;99.90;;;;;;4868641;29;20205;-80
2022/11/19 16:22:51;;;;;;;11.57;10.77;;;7.60;99.90;;;;;;4867844;29;20249;-79
2022/11/19 16:25:30;;;;;;;13.47;12.47;;;7.60;99.90;;;;;;4881006;29;20282;-79
2022/11/19 16:28:00;;;;;;;12.50;11.70;;;7.70;99.90;;;;;;4880564;29;20209;-79
2022/11/19 16:30:29;;;;;;;12.93;12.03;;;7.70;99.90;;;;;;4874028;29;20213;-79
2022/11/19 16:32:58;;;;;;;13.70;12.70;;;7.70;99.90;;;;;;4880113;29;20328;-79
2022/11/19 16:35:28;;;;;;;13.43;12.47;;;7.70;99.90;;;;;;4879187;29;20352;-78
2022/11/19 16:37:56;;;;;;;13.13;12.10;;;7.70;99.90;;;;;;4875167;29;20212;-79
2022/11/19 16:40:23;;;;;;;12.60;11.80;;;7.70;99.90;;;;;;4877434;29;20216;-80